createdAt,value
2023-05-03T00:02:44.907Z,11.30
2023-05-03T00:05:31.291Z,8.70
2023-05-03T00:08:17.157Z,10.20
2023-05-03T00:11:02.695Z,10.40
2023-05-03T00:13:48.066Z,11.40
2023-05-03T00:16:33.358Z,10.30
2023-05-03T00:19:30.476Z,11.20
2023-05-03T00:22:16.835Z,10.30
2023-05-03T00:25:02.851Z,10.90
2023-05-03T00:27:48.441Z,10.20
2023-05-03T00:30:34.095Z,10.00
2023-05-03T00:33:19.865Z,10.00
2023-05-03T00:36:10.557Z,10.00
2023-05-03T00:38:56.584Z,9.90
2023-05-03T00:41:42.163Z,9.90
2023-05-03T00:44:27.789Z,9.90
2023-05-03T00:47:13.337Z,9.90
2023-05-03T00:50:00.766Z,10.40
2023-05-03T00:52:46.484Z,9.90
2023-05-03T00:55:33.205Z,9.90
2023-05-03T00:58:18.728Z,9.70
2023-05-03T01:01:04.433Z,9.70
2023-05-03T01:03:50.721Z,9.60
2023-05-03T01:06:45.001Z,9.40
2023-05-03T01:09:49.308Z,9.40
2023-05-03T01:12:52.973Z,9.30
2023-05-03T01:16:04.911Z,9.20
2023-05-03T01:18:54.973Z,9.40
2023-05-03T01:21:45.394Z,9.70
2023-05-03T01:24:33.604Z,9.10
2023-05-03T01:27:19.397Z,9.10
2023-05-03T01:30:10.516Z,9.30
2023-05-03T01:33:07.962Z,9.20
2023-05-03T01:36:09.218Z,9.50
2023-05-03T01:38:54.883Z,9.80
2023-05-03T01:41:43.098Z,9.30
2023-05-03T01:44:29.227Z,10.10
2023-05-03T01:47:15.295Z,9.20
2023-05-03T01:50:01.153Z,9.10
2023-05-03T01:52:46.521Z,9.20
2023-05-03T01:55:31.891Z,9.30
2023-05-03T01:58:17.340Z,9.40
2023-05-03T02:01:06.287Z,9.30
2023-05-03T02:03:51.896Z,9.40
2023-05-03T02:06:37.485Z,9.00
2023-05-03T02:09:24.205Z,8.70
2023-05-03T02:12:11.490Z,8.90
2023-05-03T02:14:57.165Z,9.70
2023-05-03T02:17:43.874Z,8.90
2023-05-03T02:20:32.635Z,8.70
2023-05-03T02:23:17.901Z,8.90
2023-05-03T02:26:03.560Z,8.90
2023-05-03T02:28:49.027Z,8.80
2023-05-03T02:31:34.610Z,8.80
2023-05-03T02:34:20.356Z,8.70
2023-05-03T02:37:06.365Z,8.50
2023-05-03T02:39:51.848Z,9.10
2023-05-03T02:42:37.835Z,8.70
2023-05-03T02:45:23.386Z,8.70
2023-05-03T02:48:09.773Z,8.80
2023-05-03T02:50:56.078Z,8.80
2023-05-03T02:53:41.379Z,10.10
2023-05-03T02:56:27.701Z,8.70
2023-05-03T02:59:13.359Z,8.70
2023-05-03T03:01:58.909Z,8.60
2023-05-03T03:04:44.783Z,8.40
2023-05-03T03:07:30.281Z,8.40
2023-05-03T03:10:15.781Z,8.30
2023-05-03T03:13:01.166Z,8.20
2023-05-03T03:15:47.081Z,8.20
2023-05-03T03:18:32.704Z,8.30
2023-05-03T03:21:18.181Z,8.30
2023-05-03T03:24:04.295Z,9.10
2023-05-03T03:26:49.882Z,8.40
2023-05-03T03:29:35.357Z,8.40
2023-05-03T03:32:21.693Z,8.10
2023-05-03T03:35:08.593Z,7.80
2023-05-03T03:37:54.052Z,7.70
2023-05-03T03:40:40.172Z,7.60
2023-05-03T03:43:25.812Z,7.40
2023-05-03T03:46:11.103Z,7.40
2023-05-03T03:48:56.620Z,7.40
2023-05-03T03:51:42.259Z,7.50
2023-05-03T03:54:27.738Z,7.40
2023-05-03T03:57:12.824Z,8.60
2023-05-03T03:59:59.450Z,7.50
2023-05-03T04:02:46.775Z,7.60
2023-05-03T04:05:32.962Z,7.50
2023-05-03T04:08:18.488Z,7.60
2023-05-03T04:11:03.976Z,7.90
2023-05-03T04:13:49.567Z,7.70
2023-05-03T04:16:34.953Z,8.70
2023-05-03T04:19:22.755Z,7.70
2023-05-03T04:22:08.073Z,7.80
2023-05-03T04:24:54.866Z,7.80
2023-05-03T04:27:41.235Z,7.90
2023-05-03T04:30:27.018Z,7.90
2023-05-03T04:33:13.657Z,7.90
2023-05-03T04:35:59.316Z,7.90
2023-05-03T04:38:44.940Z,7.90
2023-05-03T04:41:30.624Z,8.00
2023-05-03T04:44:16.164Z,8.10
2023-05-03T04:47:02.707Z,7.80
2023-05-03T04:49:48.058Z,7.70
2023-05-03T04:52:33.365Z,7.80
2023-05-03T04:55:19.511Z,8.30
2023-05-03T04:58:04.811Z,7.90
2023-05-03T05:00:50.353Z,7.90
2023-05-03T05:03:35.892Z,8.10
2023-05-03T05:06:21.813Z,7.90
2023-05-03T05:09:07.605Z,7.90
2023-05-03T05:11:56.151Z,7.70
2023-05-03T05:14:42.298Z,7.60
2023-05-03T05:17:27.962Z,7.50
2023-05-03T05:20:13.647Z,7.80
2023-05-03T05:22:59.302Z,9.00
2023-05-03T05:25:45.867Z,8.20
2023-05-03T05:28:32.410Z,8.50
2023-05-03T05:31:17.712Z,8.70
2023-05-03T05:34:03.716Z,8.70
2023-05-03T05:36:50.558Z,8.70
2023-05-03T05:39:35.853Z,9.70
2023-05-03T05:42:21.555Z,9.20
2023-05-03T05:45:08.157Z,9.90
2023-05-03T05:47:53.867Z,9.80
2023-05-03T05:50:39.407Z,10.00
2023-05-03T05:53:25.191Z,10.20
2023-05-03T05:56:11.380Z,10.50
2023-05-03T05:58:57.733Z,10.30
2023-05-03T06:01:46.120Z,10.40
2023-05-03T06:04:31.442Z,10.70
2023-05-03T06:07:16.974Z,11.00
2023-05-03T06:10:03.141Z,11.30
2023-05-03T06:12:48.982Z,11.40
2023-05-03T06:15:34.525Z,11.50
2023-05-03T06:18:20.245Z,11.60
2023-05-03T06:21:05.695Z,11.90
2023-05-03T06:23:51.223Z,12.10
2023-05-03T06:26:36.535Z,11.50
2023-05-03T06:29:22.077Z,11.90
2023-05-03T06:32:07.854Z,12.80
2023-05-03T06:34:53.694Z,12.50
2023-05-03T06:37:39.491Z,13.50
2023-05-03T06:40:26.397Z,13.30
2023-05-03T06:43:12.053Z,13.40
2023-05-03T06:45:57.487Z,13.20
2023-05-03T06:48:43.107Z,13.00
2023-05-03T06:51:32.306Z,14.30
2023-05-03T06:54:17.856Z,12.80
2023-05-03T06:57:04.438Z,12.30
2023-05-03T06:59:49.799Z,12.60
2023-05-03T07:02:35.839Z,12.70
2023-05-03T07:05:21.401Z,12.90
2023-05-03T07:08:06.616Z,12.80
2023-05-03T07:10:51.861Z,12.90
2023-05-03T07:13:37.315Z,13.10
2023-05-03T07:16:22.718Z,13.30
2023-05-03T07:19:08.662Z,13.00
2023-05-03T07:21:54.181Z,13.60
2023-05-03T07:24:39.812Z,14.00
2023-05-03T07:27:26.864Z,15.10
2023-05-03T07:30:12.531Z,14.60
2023-05-03T07:32:57.863Z,14.70
2023-05-03T07:35:46.429Z,15.00
2023-05-03T07:38:34.028Z,16.80
2023-05-03T07:41:19.627Z,14.70
2023-05-03T07:44:05.187Z,15.50
2023-05-03T07:46:50.637Z,15.20
2023-05-03T07:49:37.981Z,15.90
2023-05-03T07:52:23.517Z,15.80
2023-05-03T07:55:09.470Z,15.60
2023-05-03T07:57:59.354Z,15.60
2023-05-03T08:00:44.919Z,15.90
2023-05-03T08:03:30.657Z,17.70
2023-05-03T08:06:17.521Z,16.70
2023-05-03T08:09:04.471Z,17.10
2023-05-03T08:11:49.872Z,16.40
2023-05-03T08:14:37.167Z,16.60
2023-05-03T08:17:23.248Z,17.70
2023-05-03T08:20:09.924Z,16.80
2023-05-03T08:22:56.941Z,16.80
2023-05-03T08:25:42.318Z,17.20
2023-05-03T08:28:28.013Z,17.30
2023-05-03T08:31:13.601Z,17.40
2023-05-03T08:33:58.861Z,18.30
2023-05-03T08:36:44.799Z,17.60
2023-05-03T08:39:31.730Z,17.20
2023-05-03T08:42:18.724Z,16.90
2023-05-03T08:45:04.733Z,16.80
2023-05-03T08:47:55.303Z,16.80
2023-05-03T08:50:44.418Z,17.00
2023-05-03T08:53:30.310Z,17.40
2023-05-03T08:56:30.451Z,18.80
2023-05-03T08:59:17.374Z,18.30
2023-05-03T09:02:03.134Z,18.10
2023-05-03T09:04:48.360Z,18.20
2023-05-03T09:07:33.981Z,18.00
2023-05-03T09:10:25.584Z,17.50
2023-05-03T09:13:12.171Z,17.30
2023-05-03T09:15:58.367Z,18.00
2023-05-03T09:18:56.845Z,18.20
2023-05-03T09:21:44.997Z,18.50
2023-05-03T09:24:30.555Z,18.60
2023-05-03T09:27:21.369Z,18.90
2023-05-03T09:30:18.418Z,19.70
2023-05-03T09:33:04.702Z,18.80
2023-05-03T09:36:01.012Z,19.20
2023-05-03T09:38:46.584Z,19.00
2023-05-03T09:41:32.163Z,18.70
2023-05-03T09:44:17.941Z,18.90
2023-05-03T09:47:07.585Z,18.80
2023-05-03T09:49:53.145Z,19.20
2023-05-03T09:52:40.407Z,19.30
2023-05-03T09:55:26.511Z,19.60
2023-05-03T09:58:13.047Z,19.10
2023-05-03T10:00:58.372Z,20.10
2023-05-03T10:03:50.554Z,20.20
2023-05-03T10:06:41.643Z,19.50
2023-05-03T10:09:35.886Z,19.90
2023-05-03T10:12:21.897Z,20.00
2023-05-03T10:15:10.703Z,19.70
2023-05-03T10:18:00.982Z,20.30
2023-05-03T10:20:54.909Z,20.40
2023-05-03T10:24:16.079Z,20.50
2023-05-03T10:27:02.981Z,20.50
2023-05-03T10:29:50.385Z,20.40
2023-05-03T10:32:43.098Z,20.40
2023-05-03T10:35:29.893Z,20.40
2023-05-03T10:38:23.114Z,20.50
2023-05-03T10:41:08.616Z,19.80
2023-05-03T10:43:54.018Z,20.00
2023-05-03T10:46:39.698Z,20.50
2023-05-03T10:49:26.586Z,21.10
2023-05-03T10:52:40.827Z,20.80
2023-05-03T10:55:26.254Z,20.80
2023-05-03T10:58:16.706Z,20.80
2023-05-03T11:01:04.569Z,21.00
2023-05-03T11:03:56.104Z,20.90
2023-05-03T11:06:42.512Z,21.00
2023-05-03T11:09:33.227Z,20.90
2023-05-03T11:12:18.602Z,21.20
2023-05-03T11:15:04.490Z,21.60
2023-05-03T11:17:50.089Z,21.80
2023-05-03T11:20:36.229Z,21.50
2023-05-03T11:23:27.760Z,21.40
2023-05-03T11:26:13.793Z,21.50
2023-05-03T11:28:59.330Z,22.50
2023-05-03T11:31:45.243Z,22.10
2023-05-03T11:34:31.269Z,22.30
2023-05-03T11:37:19.239Z,22.10
2023-05-03T11:40:06.914Z,22.50
2023-05-03T11:42:53.404Z,22.40
2023-05-03T11:45:44.051Z,22.20
2023-05-03T11:48:32.324Z,22.50
2023-05-03T11:51:22.925Z,22.60
2023-05-03T11:54:21.175Z,22.80
2023-05-03T11:57:13.989Z,22.80
2023-05-03T12:00:14.636Z,23.10
2023-05-03T12:03:00.988Z,23.40
2023-05-03T12:05:47.945Z,23.70
2023-05-03T12:08:36.477Z,24.30
2023-05-03T12:11:26.006Z,23.90
2023-05-03T12:14:13.099Z,23.30
2023-05-03T12:17:00.429Z,22.90
2023-05-03T12:19:48.817Z,22.70
2023-05-03T12:22:35.310Z,23.30
2023-05-03T12:25:25.720Z,23.50
2023-05-03T12:28:20.480Z,23.50
2023-05-03T12:31:06.952Z,23.30
2023-05-03T12:36:44.015Z,23.20
2023-05-03T12:39:32.503Z,23.00
2023-05-03T12:42:21.941Z,23.40
2023-05-03T12:47:57.435Z,23.20
2023-05-03T12:50:45.451Z,23.20
2023-05-03T12:53:31.411Z,23.50
2023-05-03T12:56:17.375Z,23.20
2023-05-03T12:59:31.665Z,23.40
2023-05-03T13:05:01.046Z,24.10
2023-05-03T13:07:55.543Z,23.70
2023-05-03T13:10:42.966Z,23.90
2023-05-03T13:13:28.614Z,23.90
2023-05-03T13:16:14.632Z,23.90
2023-05-03T13:19:00.526Z,23.90
2023-05-03T13:21:47.787Z,24.10
2023-05-03T13:24:33.307Z,24.10
2023-05-03T13:27:19.063Z,23.90
2023-05-03T13:30:05.146Z,23.60
2023-05-03T13:32:51.183Z,23.70
2023-05-03T13:35:36.588Z,23.70
2023-05-03T13:38:22.244Z,24.20
2023-05-03T13:41:12.383Z,24.20
2023-05-03T13:43:57.974Z,23.80
2023-05-03T13:46:44.055Z,23.90
2023-05-03T13:49:29.672Z,23.50
2023-05-03T13:52:15.153Z,23.60
2023-05-03T13:55:01.343Z,23.70
2023-05-03T13:57:46.931Z,24.00
2023-05-03T14:00:32.593Z,24.30
2023-05-03T14:03:17.901Z,24.80
2023-05-03T14:06:03.298Z,25.00
2023-05-03T14:08:49.253Z,25.50
2023-05-03T14:11:35.129Z,26.60
2023-05-03T14:14:20.632Z,24.80
2023-05-03T14:17:06.708Z,24.20
2023-05-03T14:19:52.365Z,24.20
2023-05-03T14:22:38.035Z,24.10
2023-05-03T14:25:23.469Z,24.10
2023-05-03T14:28:09.276Z,24.30
2023-05-03T14:30:54.838Z,24.40
2023-05-03T14:33:40.613Z,24.50
2023-05-03T14:36:34.942Z,24.70
2023-05-03T14:39:20.284Z,25.50
2023-05-03T14:42:06.114Z,24.80
2023-05-03T14:44:51.338Z,24.60
2023-05-03T14:47:37.368Z,24.80
2023-05-03T14:50:22.967Z,24.50
2023-05-03T14:53:08.537Z,23.80
2023-05-03T14:55:54.662Z,24.40
2023-05-03T14:58:39.935Z,24.40
2023-05-03T15:01:25.777Z,23.90
2023-05-03T15:04:10.983Z,23.70
2023-05-03T15:07:02.616Z,24.00
2023-05-03T15:09:47.858Z,24.30
2023-05-03T15:12:33.376Z,25.20
2023-05-03T15:15:18.610Z,25.40
2023-05-03T15:18:05.581Z,25.40
2023-05-03T15:20:51.321Z,25.40
2023-05-03T15:23:36.865Z,24.80
2023-05-03T15:26:22.699Z,24.90
2023-05-03T15:29:08.231Z,24.20
2023-05-03T15:31:53.616Z,24.30
2023-05-03T15:34:39.533Z,23.90
2023-05-03T15:37:35.948Z,24.10
2023-05-03T15:40:23.741Z,23.40
2023-05-03T15:43:11.330Z,23.70
2023-05-03T15:45:57.005Z,22.90
2023-05-03T15:48:42.271Z,22.60
2023-05-03T15:51:28.028Z,22.50
2023-05-03T15:54:13.418Z,22.70
2023-05-03T15:56:59.372Z,22.40
2023-05-03T15:59:45.076Z,22.40
2023-05-03T16:02:30.683Z,22.20
2023-05-03T16:05:17.398Z,22.50
2023-05-03T16:08:02.950Z,22.30
2023-05-03T16:10:48.573Z,22.00
2023-05-03T16:13:34.173Z,21.90
2023-05-03T16:16:19.584Z,21.60
2023-05-03T16:19:05.044Z,21.70
2023-05-03T16:21:50.657Z,21.80
2023-05-03T16:24:36.274Z,21.30
2023-05-03T16:27:21.640Z,21.50
2023-05-03T16:30:09.083Z,21.50
2023-05-03T16:32:54.718Z,21.40
2023-05-03T16:35:40.174Z,21.50
2023-05-03T16:38:30.438Z,21.40
2023-05-03T16:41:16.159Z,21.20
2023-05-03T16:44:04.780Z,21.20
2023-05-03T16:46:50.269Z,21.30
2023-05-03T16:49:35.630Z,21.30
2023-05-03T16:52:20.834Z,21.20
2023-05-03T16:55:10.934Z,21.20
2023-05-03T16:57:56.324Z,21.10
2023-05-03T17:00:42.404Z,21.30
2023-05-03T17:03:27.963Z,20.70
2023-05-03T17:06:13.598Z,20.60
2023-05-03T17:08:58.887Z,20.60
2023-05-03T17:11:44.326Z,20.80
2023-05-03T17:14:29.789Z,20.80
2023-05-03T17:17:15.501Z,20.70
2023-05-03T17:20:00.951Z,20.60
2023-05-03T17:22:46.547Z,20.60
2023-05-03T17:25:32.476Z,20.80
2023-05-03T17:28:17.978Z,21.20
2023-05-03T17:31:04.243Z,20.70
2023-05-03T17:33:49.696Z,20.80
2023-05-03T17:36:35.356Z,20.40
2023-05-03T17:39:21.498Z,20.20
2023-05-03T17:42:06.871Z,20.30
2023-05-03T17:44:53.191Z,19.90
2023-05-03T17:47:38.388Z,19.60
2023-05-03T17:50:24.090Z,19.50
2023-05-03T17:53:09.606Z,19.40
2023-05-03T17:55:54.824Z,19.60
2023-05-03T17:58:40.202Z,19.50
2023-05-03T18:01:25.790Z,19.90
2023-05-03T18:04:10.998Z,19.30
2023-05-03T18:06:56.608Z,19.30
2023-05-03T18:09:42.556Z,19.10
2023-05-03T18:12:28.537Z,19.20
2023-05-03T18:15:15.606Z,18.40
2023-05-03T18:18:01.488Z,18.50
2023-05-03T18:20:47.312Z,19.10
2023-05-03T18:23:33.800Z,18.10
2023-05-03T18:26:19.498Z,18.00
2023-05-03T18:29:04.780Z,18.40
2023-05-03T18:31:51.457Z,17.90
2023-05-03T18:34:37.565Z,17.90
2023-05-03T18:37:24.693Z,18.40
2023-05-03T18:40:10.678Z,17.50
2023-05-03T18:42:56.673Z,17.50
2023-05-03T18:45:42.216Z,17.70
2023-05-03T18:48:28.163Z,17.20
2023-05-03T18:51:14.337Z,17.50
2023-05-03T18:53:59.910Z,16.90
2023-05-03T18:56:45.567Z,16.80
2023-05-03T18:59:31.099Z,17.80
2023-05-03T19:02:16.630Z,17.20
2023-05-03T19:05:02.010Z,16.60
2023-05-03T19:07:48.244Z,17.20
2023-05-03T19:10:33.571Z,16.40
2023-05-03T19:13:19.545Z,16.60
2023-05-03T19:16:05.253Z,17.00
2023-05-03T19:18:50.615Z,16.20
2023-05-03T19:21:39.302Z,16.10
2023-05-03T19:24:25.290Z,16.00
2023-05-03T19:27:11.741Z,15.90
2023-05-03T19:29:57.979Z,15.90
2023-05-03T19:32:43.453Z,16.60
2023-05-03T19:35:29.117Z,16.30
2023-05-03T19:38:15.052Z,16.10
2023-05-03T19:41:00.941Z,15.70
2023-05-03T19:43:46.592Z,16.00
2023-05-03T19:46:33.910Z,15.70
2023-05-03T19:49:19.493Z,15.70
2023-05-03T19:52:06.093Z,16.90
2023-05-03T19:54:51.611Z,15.70
2023-05-03T19:57:37.921Z,15.60
2023-05-03T20:00:23.618Z,15.50
2023-05-03T20:03:09.313Z,15.60
2023-05-03T20:05:55.297Z,16.10
2023-05-03T20:08:40.551Z,15.50
2023-05-03T20:11:29.080Z,15.40
2023-05-03T20:14:14.528Z,15.50
2023-05-03T20:16:59.960Z,15.40
2023-05-03T20:19:46.556Z,15.30
2023-05-03T20:22:32.079Z,16.20
2023-05-03T20:25:17.899Z,15.20
2023-05-03T20:28:06.827Z,15.00
2023-05-03T20:30:52.164Z,16.00
2023-05-03T20:33:37.532Z,15.50
2023-05-03T20:36:22.845Z,15.20
2023-05-03T20:39:09.628Z,14.80
2023-05-03T20:41:55.273Z,14.70
2023-05-03T20:44:40.698Z,14.80
2023-05-03T20:47:27.717Z,16.90
2023-05-03T20:50:13.249Z,14.80
2023-05-03T20:52:59.789Z,14.80
2023-05-03T20:55:45.179Z,14.80
2023-05-03T20:58:30.665Z,16.00
2023-05-03T21:01:16.262Z,14.50
2023-05-03T21:04:02.955Z,14.50
2023-05-03T21:06:48.618Z,14.40
2023-05-03T21:09:33.964Z,14.50
2023-05-03T21:12:19.519Z,15.00
2023-05-03T21:15:05.322Z,14.40
2023-05-03T21:17:51.039Z,14.30
2023-05-03T21:20:37.006Z,14.20
2023-05-03T21:23:22.309Z,14.50
2023-05-03T21:26:07.828Z,14.10
2023-05-03T21:28:53.449Z,14.20
2023-05-03T21:31:40.207Z,14.10
2023-05-03T21:34:25.901Z,14.00
2023-05-03T21:37:11.547Z,14.00
2023-05-03T21:40:02.183Z,14.00
2023-05-03T21:42:50.752Z,13.80
2023-05-03T21:45:36.293Z,13.80
2023-05-03T21:48:22.580Z,13.70
2023-05-03T21:51:08.798Z,14.00
2023-05-03T21:53:54.542Z,13.50
2023-05-03T21:56:40.123Z,14.20
2023-05-03T21:59:25.604Z,13.30
2023-05-03T22:02:11.264Z,13.40
2023-05-03T22:04:56.504Z,13.40
2023-05-03T22:07:41.631Z,13.30
2023-05-03T22:10:27.458Z,13.40
2023-05-03T22:13:13.212Z,13.80
2023-05-03T22:16:07.502Z,13.40
2023-05-03T22:18:53.386Z,13.30
2023-05-03T22:21:39.036Z,13.60
2023-05-03T22:24:26.729Z,13.20
2023-05-03T22:27:12.359Z,13.20
2023-05-03T22:29:57.587Z,13.10
2023-05-03T22:32:43.155Z,13.00
2023-05-03T22:35:28.613Z,12.90
2023-05-03T22:38:13.866Z,12.90
2023-05-03T22:40:59.405Z,12.90
2023-05-03T22:43:44.859Z,12.90
2023-05-03T22:46:30.445Z,12.80
2023-05-03T22:49:16.061Z,12.80
2023-05-03T22:52:01.693Z,12.80
2023-05-03T22:54:47.167Z,12.70
2023-05-03T22:57:32.624Z,12.60
2023-05-03T23:00:20.114Z,12.80
2023-05-03T23:03:07.662Z,12.40
2023-05-03T23:05:53.964Z,12.50
2023-05-03T23:08:39.437Z,12.40
2023-05-03T23:11:24.858Z,13.20
2023-05-03T23:14:10.197Z,12.40
2023-05-03T23:16:55.922Z,12.10
2023-05-03T23:19:41.703Z,12.60
2023-05-03T23:22:27.613Z,11.80
2023-05-03T23:25:12.899Z,11.70
2023-05-03T23:27:59.305Z,11.70
2023-05-03T23:30:46.200Z,11.70
2023-05-03T23:33:32.216Z,11.70
2023-05-03T23:36:17.580Z,11.60
2023-05-03T23:39:03.722Z,11.60
2023-05-03T23:41:49.374Z,11.70
2023-05-03T23:44:50.390Z,11.70
2023-05-03T23:47:40.084Z,12.30
2023-05-03T23:50:25.789Z,11.70
2023-05-03T23:53:11.239Z,11.70
2023-05-03T23:55:56.848Z,11.70
2023-05-03T23:58:42.502Z,13.10
